createdAt,value
2023-05-22T00:00:28.493Z,14.00
2023-05-22T00:03:17.200Z,13.90
2023-05-22T00:05:45.426Z,13.90
2023-05-22T00:08:15.303Z,13.90
2023-05-22T00:10:43.628Z,13.90
2023-05-22T00:13:12.166Z,13.90
2023-05-22T00:15:40.386Z,13.80
2023-05-22T00:18:09.295Z,13.80
2023-05-22T00:20:39.416Z,13.80
2023-05-22T00:23:10.240Z,13.70
2023-05-22T00:25:40.731Z,13.70
2023-05-22T00:28:09.284Z,13.70
2023-05-22T00:30:38.798Z,13.60
2023-05-22T00:33:07.717Z,13.60
2023-05-22T00:35:36.190Z,13.60
2023-05-22T00:38:05.673Z,13.70
2023-05-22T00:40:34.059Z,13.60
2023-05-22T00:43:08.491Z,13.60
2023-05-22T00:45:37.021Z,13.60
2023-05-22T00:48:06.127Z,13.70
2023-05-22T00:50:34.481Z,13.60
2023-05-22T00:53:03.622Z,13.60
2023-05-22T00:55:32.080Z,13.60
2023-05-22T00:58:01.106Z,13.60
2023-05-22T01:00:34.261Z,13.60
2023-05-22T01:03:03.035Z,13.60
2023-05-22T01:05:31.463Z,13.60
2023-05-22T01:07:59.941Z,13.60
2023-05-22T01:10:29.137Z,13.60
2023-05-22T01:13:05.780Z,13.60
2023-05-22T01:15:44.440Z,13.60
2023-05-22T01:18:20.700Z,13.60
2023-05-22T01:20:58.212Z,13.60
2023-05-22T01:24:00.152Z,13.60
2023-05-22T01:27:10.907Z,13.60
2023-05-22T01:29:48.934Z,13.60
2023-05-22T01:32:22.512Z,13.60
2023-05-22T01:34:55.671Z,13.60
2023-05-22T01:37:25.382Z,13.60
2023-05-22T01:39:54.520Z,13.60
2023-05-22T01:42:23.039Z,13.60
2023-05-22T01:44:51.653Z,13.60
2023-05-22T01:47:21.507Z,13.60
2023-05-22T01:49:50.201Z,13.60
2023-05-22T01:52:26.896Z,13.60
2023-05-22T01:55:03.635Z,13.60
2023-05-22T01:57:39.251Z,13.60
2023-05-22T02:00:10.913Z,13.60
2023-05-22T02:02:43.630Z,13.60
2023-05-22T02:05:14.641Z,13.60
2023-05-22T02:07:43.714Z,13.60
2023-05-22T02:10:14.335Z,13.60
2023-05-22T02:12:43.219Z,13.60
2023-05-22T02:15:12.248Z,13.60
2023-05-22T02:17:42.017Z,13.60
2023-05-22T02:20:14.554Z,13.60
2023-05-22T02:22:44.578Z,13.60
2023-05-22T02:25:14.663Z,13.70
2023-05-22T02:27:43.793Z,13.70
2023-05-22T02:30:12.981Z,13.70
2023-05-22T02:32:43.093Z,13.70
2023-05-22T02:35:11.872Z,13.70
2023-05-22T02:37:40.215Z,13.80
2023-05-22T02:40:10.101Z,13.80
2023-05-22T02:42:38.749Z,13.80
2023-05-22T02:45:08.613Z,13.80
2023-05-22T02:47:36.870Z,13.80
2023-05-22T02:50:08.435Z,13.80
2023-05-22T02:52:37.108Z,13.80
2023-05-22T02:55:07.416Z,13.80
2023-05-22T02:57:36.247Z,13.80
2023-05-22T03:00:05.399Z,13.80
2023-05-22T03:02:33.692Z,13.80
2023-05-22T03:05:02.869Z,13.80
2023-05-22T03:07:32.744Z,13.80
2023-05-22T03:10:01.318Z,13.80
2023-05-22T03:12:29.597Z,13.80
2023-05-22T03:14:58.218Z,13.80
2023-05-22T03:17:26.493Z,13.80
2023-05-22T03:19:55.279Z,13.80
2023-05-22T03:22:23.700Z,13.90
2023-05-22T03:24:53.645Z,13.90
2023-05-22T03:27:22.027Z,13.90
2023-05-22T03:29:50.575Z,14.00
2023-05-22T03:32:18.883Z,14.00
2023-05-22T03:34:47.512Z,14.10
2023-05-22T03:37:15.882Z,14.20
2023-05-22T03:39:44.473Z,14.30
2023-05-22T03:42:14.421Z,14.40
2023-05-22T03:44:43.009Z,14.50
2023-05-22T03:47:11.231Z,14.50
2023-05-22T03:49:39.781Z,14.60
2023-05-22T03:52:10.888Z,14.70
2023-05-22T03:54:39.474Z,14.70
2023-05-22T03:57:07.663Z,14.80
2023-05-22T03:59:37.842Z,14.90
2023-05-22T04:02:06.786Z,14.90
2023-05-22T04:04:38.830Z,15.00
2023-05-22T04:07:08.348Z,15.10
2023-05-22T04:09:37.293Z,15.20
2023-05-22T04:12:06.450Z,15.30
2023-05-22T04:14:35.173Z,15.50
2023-05-22T04:17:05.000Z,15.80
2023-05-22T04:19:33.715Z,16.00
2023-05-22T04:22:01.989Z,16.30
2023-05-22T04:24:30.558Z,16.70
2023-05-22T04:27:00.377Z,17.10
2023-05-22T04:29:29.351Z,17.40
2023-05-22T04:31:57.707Z,17.80
2023-05-22T04:34:28.642Z,18.30
2023-05-22T04:36:57.000Z,18.50
2023-05-22T04:39:26.344Z,18.70
2023-05-22T04:41:54.710Z,19.00
2023-05-22T04:44:23.865Z,19.20
2023-05-22T04:46:52.401Z,19.30
2023-05-22T04:49:21.095Z,19.40
2023-05-22T04:51:50.695Z,19.40
2023-05-22T04:54:19.364Z,19.40
2023-05-22T04:56:47.772Z,19.40
2023-05-22T04:59:16.457Z,19.40
2023-05-22T05:01:45.490Z,19.50
2023-05-22T05:04:14.244Z,19.60
2023-05-22T05:06:43.308Z,19.60
2023-05-22T05:09:13.204Z,19.70
2023-05-22T05:11:41.529Z,19.70
2023-05-22T05:14:10.150Z,19.80
2023-05-22T05:16:38.414Z,19.80
2023-05-22T05:19:07.189Z,19.80
2023-05-22T05:21:35.949Z,19.80
2023-05-22T05:24:04.806Z,19.80
2023-05-22T05:26:34.524Z,19.80
2023-05-22T05:29:03.049Z,19.80
2023-05-22T05:31:32.929Z,19.80
2023-05-22T05:34:01.619Z,19.80
2023-05-22T05:36:30.559Z,19.90
2023-05-22T05:38:59.116Z,19.90
2023-05-22T05:41:27.689Z,19.90
2023-05-22T05:43:59.987Z,19.90
2023-05-22T05:46:28.330Z,20.00
2023-05-22T05:48:56.907Z,20.10
2023-05-22T05:51:25.134Z,20.20
2023-05-22T05:53:53.619Z,20.40
2023-05-22T05:56:21.923Z,20.50
2023-05-22T05:58:50.402Z,20.70
2023-05-22T06:01:20.105Z,20.80
2023-05-22T06:03:48.829Z,21.10
2023-05-22T06:06:17.602Z,21.50
2023-05-22T06:08:46.368Z,21.90
2023-05-22T06:11:14.680Z,22.30
2023-05-22T06:13:43.195Z,22.60
2023-05-22T06:16:12.331Z,22.90
2023-05-22T06:18:42.236Z,23.30
2023-05-22T06:21:10.576Z,23.60
2023-05-22T06:23:39.343Z,24.00
2023-05-22T06:26:08.244Z,24.40
2023-05-22T06:28:36.763Z,24.90
2023-05-22T06:31:05.344Z,25.20
2023-05-22T06:33:34.639Z,25.60
2023-05-22T06:36:04.828Z,25.90
2023-05-22T06:38:33.779Z,26.20
2023-05-22T06:41:02.107Z,26.60
2023-05-22T06:43:30.906Z,27.00
2023-05-22T06:45:59.218Z,27.30
2023-05-22T06:48:27.772Z,27.50
2023-05-22T06:50:56.040Z,27.70
2023-05-22T06:53:26.029Z,27.90
2023-05-22T06:55:54.360Z,27.90
2023-05-22T06:58:23.046Z,28.00
2023-05-22T07:00:51.423Z,28.10
2023-05-22T07:03:20.340Z,28.40
2023-05-22T07:05:48.623Z,28.60
2023-05-22T07:08:17.275Z,28.70
2023-05-22T07:10:46.931Z,28.80
2023-05-22T07:13:15.531Z,28.80
2023-05-22T07:15:46.388Z,28.80
2023-05-22T07:18:15.317Z,28.80
2023-05-22T07:20:44.439Z,28.80
2023-05-22T07:23:13.047Z,28.90
2023-05-22T07:25:41.465Z,28.90
2023-05-22T07:28:11.650Z,28.80
2023-05-22T07:30:40.107Z,28.70
2023-05-22T07:33:08.984Z,28.70
2023-05-22T07:35:37.323Z,28.80
2023-05-22T07:38:05.849Z,29.00
2023-05-22T07:40:34.179Z,29.10
2023-05-22T07:43:02.697Z,29.20
2023-05-22T07:45:32.541Z,29.30
2023-05-22T07:48:02.210Z,29.50
2023-05-22T07:50:33.129Z,29.70
2023-05-22T07:53:02.110Z,30.10
2023-05-22T07:55:30.390Z,30.40
2023-05-22T07:57:59.111Z,30.50
2023-05-22T08:00:27.484Z,30.50
2023-05-22T08:02:57.394Z,30.60
2023-05-22T08:05:25.908Z,30.70
2023-05-22T08:07:54.685Z,30.90
2023-05-22T08:10:23.220Z,30.90
2023-05-22T08:12:51.904Z,30.90
2023-05-22T08:15:20.439Z,30.90
2023-05-22T08:17:49.580Z,31.00
2023-05-22T08:20:19.328Z,31.10
2023-05-22T08:22:48.130Z,31.20
2023-05-22T08:25:16.685Z,31.30
2023-05-22T08:27:45.211Z,31.30
2023-05-22T08:30:13.631Z,31.30
2023-05-22T08:32:42.215Z,31.10
2023-05-22T08:35:11.532Z,30.90
2023-05-22T08:37:41.660Z,30.80
2023-05-22T08:40:12.640Z,30.80
2023-05-22T08:42:41.614Z,30.80
2023-05-22T08:45:10.604Z,30.70
2023-05-22T08:47:41.955Z,30.70
2023-05-22T08:50:11.224Z,30.60
2023-05-22T08:52:48.457Z,30.70
2023-05-22T08:55:19.448Z,30.70
2023-05-22T08:57:48.412Z,30.70
2023-05-22T09:00:18.073Z,30.60
2023-05-22T09:02:47.966Z,30.50
2023-05-22T09:05:17.987Z,30.40
2023-05-22T09:07:48.931Z,30.30
2023-05-22T09:10:17.299Z,30.20
2023-05-22T09:13:04.532Z,30.30
2023-05-22T09:15:33.478Z,30.20
2023-05-22T09:18:03.627Z,30.20
2023-05-22T09:20:35.854Z,30.30
2023-05-22T09:23:12.699Z,30.30
2023-05-22T09:25:42.581Z,30.20
2023-05-22T09:28:12.506Z,30.00
2023-05-22T09:30:42.622Z,29.70
2023-05-22T09:33:14.301Z,29.50
2023-05-22T09:35:43.960Z,29.30
2023-05-22T09:38:14.120Z,29.30
2023-05-22T09:40:43.124Z,29.30
2023-05-22T09:43:12.106Z,29.30
2023-05-22T09:45:40.947Z,29.20
2023-05-22T09:48:10.888Z,29.20
2023-05-22T09:50:40.417Z,29.20
2023-05-22T09:53:11.313Z,29.10
2023-05-22T09:55:41.267Z,29.00
2023-05-22T09:58:13.021Z,28.90
2023-05-22T10:00:43.054Z,28.80
2023-05-22T10:03:12.926Z,28.70
2023-05-22T10:05:46.806Z,28.50
2023-05-22T10:08:17.130Z,28.40
2023-05-22T10:10:51.374Z,28.30
2023-05-22T10:13:20.105Z,28.30
2023-05-22T10:15:49.818Z,28.30
2023-05-22T10:18:19.295Z,28.20
2023-05-22T10:20:48.426Z,28.10
2023-05-22T10:23:18.302Z,27.90
2023-05-22T10:25:48.653Z,27.80
2023-05-22T10:28:28.685Z,27.60
2023-05-22T10:31:03.102Z,27.60
2023-05-22T10:33:49.606Z,27.60
2023-05-22T10:36:27.455Z,27.60
2023-05-22T10:39:09.236Z,27.50
2023-05-22T10:41:39.179Z,27.30
2023-05-22T10:44:08.252Z,27.20
2023-05-22T10:46:38.035Z,27.10
2023-05-22T10:49:06.849Z,26.90
2023-05-22T10:51:35.410Z,26.90
2023-05-22T10:54:05.580Z,26.80
2023-05-22T10:56:36.259Z,26.80
2023-05-22T10:59:08.170Z,26.80
2023-05-22T11:01:38.508Z,26.90
2023-05-22T11:04:13.122Z,26.90
2023-05-22T11:06:43.067Z,27.00
2023-05-22T11:09:22.868Z,27.10
2023-05-22T11:12:16.290Z,27.10
2023-05-22T11:14:50.246Z,26.90
2023-05-22T11:17:20.053Z,26.90
2023-05-22T11:20:02.738Z,26.90
2023-05-22T11:22:36.685Z,26.90
2023-05-22T11:25:08.688Z,26.90
2023-05-22T11:27:39.166Z,27.00
2023-05-22T11:30:10.809Z,27.10
2023-05-22T11:32:40.327Z,27.30
2023-05-22T11:35:09.589Z,27.50
2023-05-22T11:37:41.704Z,27.60
2023-05-22T11:40:11.602Z,27.60
2023-05-22T11:42:40.003Z,27.80
2023-05-22T11:45:11.067Z,27.80
2023-05-22T11:47:39.597Z,27.80
2023-05-22T11:50:10.885Z,27.80
2023-05-22T11:52:41.651Z,27.70
2023-05-22T11:55:11.368Z,27.60
2023-05-22T11:57:39.910Z,27.40
2023-05-22T12:00:11.047Z,27.10
2023-05-22T12:02:39.632Z,26.90
2023-05-22T12:05:11.891Z,26.90
2023-05-22T12:07:40.175Z,26.80
2023-05-22T12:10:09.114Z,26.70
2023-05-22T12:12:38.564Z,26.70
2023-05-22T12:15:09.841Z,26.70
2023-05-22T12:17:38.872Z,26.70
2023-05-22T12:20:08.305Z,26.70
2023-05-22T12:22:42.275Z,26.60
2023-05-22T12:25:16.254Z,26.50
2023-05-22T12:27:45.300Z,26.30
2023-05-22T12:30:16.889Z,26.10
2023-05-22T12:32:49.483Z,25.90
2023-05-22T12:35:19.314Z,25.80
2023-05-22T12:37:51.159Z,25.70
2023-05-22T12:40:20.466Z,25.70
2023-05-22T12:42:50.061Z,25.70
2023-05-22T12:45:19.979Z,25.70
2023-05-22T12:47:48.343Z,25.70
2023-05-22T12:50:17.027Z,25.60
2023-05-22T12:52:45.523Z,25.50
2023-05-22T12:55:14.180Z,25.40
2023-05-22T12:57:42.489Z,25.40
2023-05-22T13:00:12.294Z,25.50
2023-05-22T13:02:42.295Z,25.90
2023-05-22T13:05:11.346Z,26.20
2023-05-22T13:07:39.657Z,26.50
2023-05-22T13:10:09.517Z,26.70
2023-05-22T13:12:37.770Z,26.80
2023-05-22T13:15:07.663Z,26.80
2023-05-22T13:17:36.210Z,26.90
2023-05-22T13:20:07.254Z,27.10
2023-05-22T13:22:35.529Z,27.30
2023-05-22T13:25:04.308Z,27.50
2023-05-22T13:27:33.862Z,27.70
2023-05-22T13:30:03.270Z,27.70
2023-05-22T13:32:32.048Z,27.80
2023-05-22T13:35:00.870Z,27.70
2023-05-22T13:37:30.563Z,27.70
2023-05-22T13:39:59.201Z,27.60
2023-05-22T13:42:27.486Z,27.60
2023-05-22T13:44:56.121Z,27.60
2023-05-22T13:47:26.037Z,27.70
2023-05-22T13:49:54.789Z,27.70
2023-05-22T13:52:24.887Z,27.80
2023-05-22T13:54:55.373Z,27.80
2023-05-22T13:57:23.820Z,27.80
2023-05-22T13:59:52.535Z,27.70
2023-05-22T14:02:21.292Z,27.70
2023-05-22T14:04:50.297Z,27.70
2023-05-22T14:07:18.790Z,27.70
2023-05-22T14:09:47.385Z,27.70
2023-05-22T14:12:17.071Z,27.70
2023-05-22T14:14:45.532Z,27.70
2023-05-22T14:17:13.775Z,27.70
2023-05-22T14:19:42.516Z,27.70
2023-05-22T14:22:10.857Z,27.70
2023-05-22T14:24:39.370Z,27.60
2023-05-22T14:27:07.720Z,27.60
2023-05-22T14:29:37.645Z,27.70
2023-05-22T14:32:07.111Z,27.60
2023-05-22T14:34:35.661Z,27.60
2023-05-22T14:37:04.042Z,27.40
2023-05-22T14:39:32.532Z,27.30
2023-05-22T14:42:00.932Z,27.20
2023-05-22T14:44:29.595Z,27.10
2023-05-22T14:46:59.199Z,27.00
2023-05-22T14:49:27.667Z,27.10
2023-05-22T14:51:55.846Z,27.00
2023-05-22T14:54:24.306Z,27.00
2023-05-22T14:56:52.662Z,27.00
2023-05-22T14:59:21.451Z,26.90
2023-05-22T15:01:50.580Z,26.80
2023-05-22T15:04:20.769Z,26.70
2023-05-22T15:06:49.308Z,26.60
2023-05-22T15:09:18.039Z,26.50
2023-05-22T15:11:49.254Z,26.40
2023-05-22T15:14:18.226Z,26.30
2023-05-22T15:16:46.571Z,26.20
2023-05-22T15:19:15.100Z,26.20
2023-05-22T15:21:44.717Z,26.10
2023-05-22T15:24:13.308Z,26.10
2023-05-22T15:26:41.566Z,26.10
2023-05-22T15:29:10.161Z,26.00
2023-05-22T15:31:38.528Z,26.00
2023-05-22T15:34:07.238Z,25.90
2023-05-22T15:36:37.484Z,25.80
2023-05-22T15:39:07.351Z,25.80
2023-05-22T15:41:35.801Z,25.70
2023-05-22T15:44:04.369Z,25.70
2023-05-22T15:46:33.002Z,25.60
2023-05-22T15:49:01.593Z,25.60
2023-05-22T15:51:31.060Z,25.70
2023-05-22T15:53:59.758Z,25.70
2023-05-22T15:56:29.433Z,25.70
2023-05-22T15:58:57.954Z,25.70
2023-05-22T16:01:26.381Z,25.70
2023-05-22T16:03:54.912Z,25.60
2023-05-22T16:06:23.617Z,25.60
2023-05-22T16:08:52.293Z,25.60
2023-05-22T16:11:20.648Z,25.60
2023-05-22T16:13:50.988Z,25.60
2023-05-22T16:16:19.258Z,25.60
2023-05-22T16:18:47.852Z,25.60
2023-05-22T16:21:16.190Z,25.50
2023-05-22T16:23:44.684Z,25.50
2023-05-22T16:26:12.887Z,25.50
2023-05-22T16:28:41.465Z,25.50
2023-05-22T16:31:12.852Z,25.50
2023-05-22T16:33:41.698Z,25.50
2023-05-22T16:36:10.313Z,25.50
2023-05-22T16:38:39.158Z,25.50
2023-05-22T16:41:07.451Z,25.50
2023-05-22T16:43:36.702Z,25.40
2023-05-22T16:46:05.088Z,25.40
2023-05-22T16:48:35.460Z,25.40
2023-05-22T16:51:03.767Z,25.30
2023-05-22T16:53:32.427Z,25.30
2023-05-22T16:56:00.810Z,25.20
2023-05-22T16:58:29.411Z,25.20
2023-05-22T17:00:57.879Z,25.10
2023-05-22T17:03:27.082Z,25.10
2023-05-22T17:05:56.954Z,25.00
2023-05-22T17:08:28.262Z,24.90
2023-05-22T17:10:56.759Z,24.80
2023-05-22T17:13:25.442Z,24.70
2023-05-22T17:15:53.677Z,24.70
2023-05-22T17:18:22.204Z,24.70
2023-05-22T17:20:51.017Z,24.60
2023-05-22T17:23:21.226Z,24.50
2023-05-22T17:25:50.688Z,24.50
2023-05-22T17:28:19.244Z,24.40
2023-05-22T17:30:48.258Z,24.30
2023-05-22T17:33:17.314Z,24.30
2023-05-22T17:35:46.040Z,24.20
2023-05-22T17:38:14.882Z,24.10
2023-05-22T17:40:46.227Z,24.10
2023-05-22T17:43:16.596Z,24.00
2023-05-22T17:45:49.792Z,23.90
2023-05-22T17:48:23.423Z,23.90
2023-05-22T17:50:52.247Z,23.90
2023-05-22T17:53:21.678Z,23.80
2023-05-22T17:55:52.554Z,23.70
2023-05-22T17:58:21.698Z,23.70
2023-05-22T18:00:50.141Z,23.70
2023-05-22T18:03:20.902Z,23.60
2023-05-22T18:05:49.915Z,23.50
2023-05-22T18:08:19.153Z,23.50
2023-05-22T18:10:47.432Z,23.40
2023-05-22T18:13:19.264Z,23.30
2023-05-22T18:15:49.040Z,23.30
2023-05-22T18:18:20.829Z,23.20
2023-05-22T18:20:49.083Z,23.10
2023-05-22T18:23:17.641Z,23.00
2023-05-22T18:25:45.955Z,22.90
2023-05-22T18:28:14.580Z,22.80
2023-05-22T18:30:45.734Z,22.80
2023-05-22T18:33:14.331Z,22.60
2023-05-22T18:35:42.643Z,22.50
2023-05-22T18:38:11.279Z,22.40
2023-05-22T18:40:39.637Z,22.30
2023-05-22T18:43:08.257Z,22.20
2023-05-22T18:45:36.509Z,22.10
2023-05-22T18:48:06.452Z,22.00
2023-05-22T18:50:35.156Z,21.90
2023-05-22T18:53:03.749Z,21.80
2023-05-22T18:55:31.999Z,21.70
2023-05-22T18:58:00.682Z,21.60
2023-05-22T19:00:28.988Z,21.50
2023-05-22T19:02:57.960Z,21.40
2023-05-22T19:05:27.624Z,21.30
2023-05-22T19:07:56.235Z,21.20
2023-05-22T19:10:24.471Z,21.10
2023-05-22T19:12:52.970Z,21.00
2023-05-22T19:15:21.183Z,20.90
2023-05-22T19:17:49.718Z,20.90
2023-05-22T19:20:18.044Z,20.80
2023-05-22T19:22:47.914Z,20.70
2023-05-22T19:25:16.200Z,20.70
2023-05-22T19:27:44.999Z,20.60
2023-05-22T19:30:15.246Z,20.50
2023-05-22T19:32:44.453Z,20.40
2023-05-22T19:35:15.439Z,20.30
2023-05-22T19:37:43.941Z,20.20
2023-05-22T19:40:13.733Z,20.10
2023-05-22T19:42:43.129Z,19.90
2023-05-22T19:45:11.848Z,19.80
2023-05-22T19:47:40.528Z,19.70
2023-05-22T19:50:09.509Z,19.60
2023-05-22T19:52:38.140Z,19.50
2023-05-22T19:55:07.062Z,19.30
2023-05-22T19:57:36.920Z,19.20
2023-05-22T20:00:07.526Z,19.20
2023-05-22T20:02:36.219Z,19.00
2023-05-22T20:05:04.831Z,18.90
2023-05-22T20:07:33.399Z,18.80
2023-05-22T20:10:01.566Z,18.70
2023-05-22T20:12:30.029Z,18.60
2023-05-22T20:14:59.812Z,18.50
2023-05-22T20:17:28.415Z,18.40
2023-05-22T20:19:57.663Z,18.30
2023-05-22T20:22:26.718Z,18.30
2023-05-22T20:24:55.193Z,18.20
2023-05-22T20:27:23.735Z,18.20
2023-05-22T20:29:52.050Z,18.10
2023-05-22T20:32:22.334Z,18.10
2023-05-22T20:34:52.434Z,18.10
2023-05-22T20:37:20.981Z,18.00
2023-05-22T20:39:50.160Z,18.00
2023-05-22T20:42:19.126Z,17.90
2023-05-22T20:44:47.540Z,17.90
2023-05-22T20:47:16.110Z,17.90
2023-05-22T20:49:45.716Z,17.80
2023-05-22T20:52:14.374Z,17.80
2023-05-22T20:54:42.752Z,17.80
2023-05-22T20:57:11.370Z,17.80
2023-05-22T20:59:41.019Z,17.70
2023-05-22T21:02:09.532Z,17.60
2023-05-22T21:04:37.782Z,17.60
2023-05-22T21:07:08.101Z,17.60
2023-05-22T21:09:36.526Z,17.50
2023-05-22T21:12:05.314Z,17.50
2023-05-22T21:14:33.668Z,17.40
2023-05-22T21:17:02.343Z,17.40
2023-05-22T21:19:30.896Z,17.30
2023-05-22T21:21:59.718Z,17.30
2023-05-22T21:24:29.294Z,17.20
2023-05-22T21:26:57.784Z,17.20
2023-05-22T21:29:26.031Z,17.20
2023-05-22T21:31:54.559Z,17.20
2023-05-22T21:34:23.015Z,17.10
2023-05-22T21:36:51.666Z,17.00
2023-05-22T21:39:19.833Z,17.00
2023-05-22T21:41:50.114Z,16.90
2023-05-22T21:44:18.529Z,16.90
2023-05-22T21:46:47.084Z,16.90
2023-05-22T21:49:15.777Z,16.80
2023-05-22T21:51:44.299Z,16.80
2023-05-22T21:54:12.484Z,16.70
2023-05-22T21:56:41.000Z,16.70
2023-05-22T21:59:10.632Z,16.60
2023-05-22T22:01:39.252Z,16.60
2023-05-22T22:04:07.660Z,16.60
2023-05-22T22:06:37.877Z,16.50
2023-05-22T22:09:06.100Z,16.50
2023-05-22T22:11:34.678Z,16.50
2023-05-22T22:14:02.897Z,16.40
2023-05-22T22:16:36.091Z,16.50
2023-05-22T22:19:04.921Z,16.40
2023-05-22T22:21:34.255Z,16.30
2023-05-22T22:24:02.590Z,16.30
2023-05-22T22:26:31.172Z,16.20
2023-05-22T22:28:59.413Z,16.20
2023-05-22T22:31:28.030Z,16.20
2023-05-22T22:33:57.693Z,16.10
2023-05-22T22:36:26.368Z,16.10
2023-05-22T22:38:54.593Z,16.10
2023-05-22T22:41:23.147Z,16.00
2023-05-22T22:43:52.754Z,16.00
2023-05-22T22:46:23.133Z,15.90
2023-05-22T22:48:51.856Z,15.90
2023-05-22T22:51:21.676Z,15.90
2023-05-22T22:53:50.032Z,15.80
2023-05-22T22:56:18.712Z,15.80
2023-05-22T22:58:47.017Z,15.80
2023-05-22T23:01:15.706Z,15.70
2023-05-22T23:03:43.902Z,15.70
2023-05-22T23:06:12.453Z,15.70
2023-05-22T23:08:42.114Z,15.60
2023-05-22T23:11:10.720Z,15.60
2023-05-22T23:13:41.148Z,15.60
2023-05-22T23:16:09.904Z,15.50
2023-05-22T23:18:38.123Z,15.50
2023-05-22T23:21:06.949Z,15.40
2023-05-22T23:23:35.158Z,15.40
2023-05-22T23:26:05.466Z,15.40
2023-05-22T23:28:33.791Z,15.40
2023-05-22T23:31:02.330Z,15.30
2023-05-22T23:33:30.663Z,15.30
2023-05-22T23:35:59.232Z,15.30
2023-05-22T23:38:27.425Z,15.30
2023-05-22T23:40:55.892Z,15.20
2023-05-22T23:43:25.552Z,15.20
2023-05-22T23:45:54.079Z,15.20
2023-05-22T23:48:22.310Z,15.20
2023-05-22T23:50:50.840Z,15.10
2023-05-22T23:53:19.177Z,15.10
2023-05-22T23:55:47.826Z,15.00
2023-05-22T23:58:16.917Z,15.00
